createdAt,value
2023-03-02T07:09:23.958Z,82.39
2023-03-02T07:11:50.870Z,85.02
2023-03-02T07:14:17.676Z,85.54
2023-03-02T07:16:44.592Z,84.43
2023-03-02T07:19:13.675Z,84.60
2023-03-02T07:21:40.647Z,84.31
2023-03-02T07:24:07.965Z,84.18
2023-03-02T07:26:34.906Z,85.79
2023-03-02T07:29:02.027Z,87.06
2023-03-02T07:31:28.861Z,86.56
2023-03-02T07:33:55.712Z,87.32
2023-03-02T07:36:22.677Z,88.36
2023-03-02T07:38:49.518Z,86.92
2023-03-02T07:41:17.092Z,86.14
2023-03-02T07:43:44.339Z,84.59
2023-03-02T07:46:11.233Z,84.91
2023-03-02T07:48:38.138Z,85.55
2023-03-02T07:51:06.628Z,86.68
2023-03-02T07:53:36.374Z,88.03
2023-03-02T07:56:08.516Z,86.49
2023-03-02T07:58:35.472Z,84.56
2023-03-02T08:01:02.419Z,84.20
2023-03-02T08:03:29.280Z,84.95
2023-03-02T08:05:56.151Z,85.07
2023-03-02T08:08:23.079Z,85.99
2023-03-02T08:10:49.997Z,84.99
2023-03-02T08:13:16.869Z,85.67
2023-03-02T08:15:43.758Z,85.58
2023-03-02T08:18:10.636Z,86.70
2023-03-02T08:20:38.051Z,86.88
2023-03-02T08:23:04.941Z,86.71
2023-03-02T08:25:31.836Z,87.77
2023-03-02T08:27:58.691Z,86.87
2023-03-02T08:30:25.724Z,87.03
2023-03-02T08:32:52.898Z,87.03
2023-03-02T08:35:22.313Z,86.86
2023-03-02T08:37:49.384Z,86.91
2023-03-02T08:40:16.609Z,86.30
2023-03-02T08:42:43.772Z,86.18
2023-03-02T08:45:10.720Z,86.60
2023-03-02T08:47:37.793Z,87.40
2023-03-02T08:50:05.822Z,86.76
2023-03-02T08:52:35.451Z,87.65
2023-03-02T08:55:03.892Z,87.79
2023-03-02T08:57:31.151Z,87.68
2023-03-02T08:59:57.975Z,87.13
2023-03-02T09:02:24.888Z,86.61
2023-03-02T09:04:51.888Z,87.19
2023-03-02T09:07:18.773Z,86.80
2023-03-02T09:09:45.677Z,87.04
2023-03-02T09:12:12.484Z,86.51
2023-03-02T09:14:39.600Z,86.73
2023-03-02T09:17:06.666Z,86.57
2023-03-02T09:19:43.958Z,86.98
2023-03-02T09:22:11.832Z,86.39
2023-03-02T09:24:39.106Z,85.91
2023-03-02T09:27:05.961Z,86.05
2023-03-02T09:29:33.848Z,85.70
2023-03-02T09:32:00.788Z,85.43
2023-03-02T09:34:27.626Z,85.27
2023-03-02T09:36:54.466Z,84.69
2023-03-02T09:39:21.497Z,84.87
2023-03-02T09:42:09.464Z,84.59
2023-03-02T09:44:40.899Z,84.65
2023-03-02T09:47:35.542Z,84.48
2023-03-02T09:50:02.919Z,84.50
2023-03-02T09:52:36.655Z,84.12
2023-03-02T09:55:14.645Z,83.88
2023-03-02T09:57:42.253Z,83.24
2023-03-02T10:00:24.088Z,83.52
2023-03-02T10:02:56.240Z,83.11
2023-03-02T10:05:39.196Z,82.79
2023-03-02T10:08:11.019Z,82.92
2023-03-02T10:10:41.564Z,82.62
2023-03-02T10:13:20.344Z,82.44
2023-03-02T10:15:59.472Z,82.31
2023-03-02T10:18:41.911Z,81.84
2023-03-02T10:21:22.788Z,82.07
2023-03-02T10:24:01.731Z,81.67
2023-03-02T10:26:43.572Z,81.89
2023-03-02T10:29:48.023Z,81.55
2023-03-02T10:32:21.929Z,81.27
2023-03-02T10:34:50.349Z,81.78
2023-03-02T10:37:21.876Z,80.80
2023-03-02T10:39:49.795Z,80.95
2023-03-02T10:42:21.127Z,80.74
2023-03-02T10:44:53.248Z,80.93
2023-03-02T10:47:29.805Z,80.40
2023-03-02T10:49:57.897Z,80.47
2023-03-02T10:52:27.485Z,80.20
2023-03-02T10:55:05.838Z,80.07
2023-03-02T10:57:40.862Z,79.69
2023-03-02T11:00:18.515Z,79.46
2023-03-02T11:02:52.364Z,79.69
2023-03-02T11:05:24.034Z,78.66
2023-03-02T11:07:56.866Z,78.36
2023-03-02T11:10:32.136Z,77.76
2023-03-02T11:12:59.676Z,78.16
2023-03-02T11:15:36.902Z,78.51
2023-03-02T11:18:08.784Z,78.70
2023-03-02T11:20:41.717Z,77.78
2023-03-02T11:23:14.695Z,78.25
2023-03-02T11:25:47.116Z,77.19
2023-03-02T11:28:27.951Z,77.91
2023-03-02T11:30:56.966Z,76.42
2023-03-02T11:33:47.312Z,77.43
2023-03-02T11:36:25.831Z,77.03
2023-03-02T11:38:55.287Z,77.05
2023-03-02T11:41:30.164Z,77.13
2023-03-02T11:44:00.774Z,77.84
2023-03-02T11:46:31.310Z,76.95
2023-03-02T11:49:03.838Z,76.05
2023-03-02T11:51:35.229Z,75.15
2023-03-02T11:54:19.676Z,75.61
2023-03-02T11:56:47.030Z,76.54
2023-03-02T11:59:18.659Z,76.07
2023-03-02T12:01:48.390Z,75.25
2023-03-02T12:04:32.586Z,75.33
2023-03-02T12:07:04.796Z,75.50
2023-03-02T12:09:35.643Z,75.96
2023-03-02T12:12:33.047Z,74.69
2023-03-02T12:15:00.427Z,75.37
2023-03-02T12:17:27.291Z,75.91
2023-03-02T12:20:06.995Z,75.34
2023-03-02T12:22:34.244Z,74.80
2023-03-02T12:25:19.445Z,75.13
2023-03-02T12:27:49.002Z,73.52
2023-03-02T12:30:15.906Z,73.93
2023-03-02T12:32:48.519Z,74.66
2023-03-02T12:35:19.035Z,73.45
2023-03-02T12:37:53.427Z,74.83
2023-03-02T12:40:34.049Z,74.59
2023-03-02T12:43:09.853Z,74.35
2023-03-02T12:46:03.101Z,74.56
2023-03-02T12:48:43.866Z,74.38
2023-03-02T12:51:31.544Z,74.07
2023-03-02T12:54:13.568Z,73.91
2023-03-02T12:56:40.617Z,74.14
2023-03-02T12:59:07.631Z,74.24
2023-03-02T13:01:34.703Z,73.92
2023-03-02T13:04:01.587Z,73.99
2023-03-02T13:06:31.924Z,73.69
2023-03-02T13:09:00.624Z,73.50
2023-03-02T13:11:35.381Z,73.73
2023-03-02T13:14:06.556Z,73.08
2023-03-02T13:16:37.219Z,73.04
2023-03-02T13:19:11.580Z,72.51
2023-03-02T13:21:39.207Z,73.10
2023-03-02T13:24:30.080Z,73.37
2023-03-02T13:27:08.536Z,72.64
2023-03-02T13:29:35.653Z,73.73
2023-03-02T13:32:20.367Z,72.23
2023-03-02T13:34:49.949Z,72.47
2023-03-02T13:37:38.981Z,72.01
2023-03-02T13:40:25.467Z,71.63
2023-03-02T13:42:52.302Z,72.76
2023-03-02T13:45:23.362Z,72.55
2023-03-02T13:47:50.331Z,71.97
2023-03-02T13:50:19.462Z,72.57
2023-03-02T13:52:46.542Z,72.47
2023-03-02T13:55:17.920Z,72.85
2023-03-02T13:57:47.999Z,72.81
2023-03-02T14:00:23.692Z,72.90
2023-03-02T14:02:50.761Z,73.42
2023-03-02T14:05:26.887Z,73.15
2023-03-02T14:07:53.992Z,71.92
2023-03-02T14:10:21.187Z,72.45
2023-03-02T14:13:00.139Z,72.99
2023-03-02T14:15:27.162Z,73.45
2023-03-02T14:17:54.053Z,73.62
2023-03-02T14:20:21.033Z,73.53
2023-03-02T14:22:51.525Z,74.62
2023-03-02T14:25:19.693Z,73.63
2023-03-02T14:27:48.013Z,74.89
2023-03-02T14:30:18.054Z,74.25
2023-03-02T14:32:45.230Z,74.97
2023-03-02T14:35:13.459Z,75.02
2023-03-02T14:37:46.027Z,75.63
2023-03-02T14:40:26.950Z,75.04
2023-03-02T14:42:54.085Z,76.09
2023-03-02T14:45:21.746Z,74.80
2023-03-02T14:47:49.168Z,74.78
2023-03-02T14:50:17.476Z,75.49
2023-03-02T14:52:52.457Z,75.08
2023-03-02T14:55:28.100Z,74.96
2023-03-02T14:58:00.669Z,76.33
2023-03-02T15:00:27.780Z,75.49
2023-03-02T15:02:54.893Z,73.84
2023-03-02T15:05:22.010Z,74.16
2023-03-02T15:07:49.482Z,74.84
2023-03-02T15:10:22.147Z,74.98
2023-03-02T15:12:49.344Z,75.01
2023-03-02T15:15:16.600Z,75.25
2023-03-02T15:17:43.621Z,73.12
2023-03-02T15:20:16.967Z,74.52
2023-03-02T15:22:44.196Z,74.00
2023-03-02T15:25:11.093Z,73.30
2023-03-02T15:27:38.070Z,74.15
2023-03-02T15:30:06.063Z,74.18
2023-03-02T15:32:32.974Z,74.07
2023-03-02T15:34:59.977Z,73.29
2023-03-02T15:37:26.784Z,74.09
2023-03-02T15:39:55.534Z,73.18
2023-03-02T15:42:23.473Z,72.81
2023-03-02T15:44:50.370Z,72.92
2023-03-02T15:47:17.667Z,72.86
2023-03-02T15:49:44.592Z,72.71
2023-03-02T15:52:12.581Z,73.52
2023-03-02T15:54:39.720Z,73.35
2023-03-02T15:57:06.829Z,73.41
2023-03-02T15:59:33.871Z,73.62
2023-03-02T16:02:02.435Z,73.79
2023-03-02T16:04:30.852Z,74.21
2023-03-02T16:06:58.090Z,73.93
2023-03-02T16:09:26.234Z,74.54
2023-03-02T16:11:53.502Z,74.95
2023-03-02T16:14:20.485Z,74.09
2023-03-02T16:16:47.778Z,74.59
2023-03-02T16:19:19.070Z,74.39
2023-03-02T16:21:47.247Z,73.30
2023-03-02T16:24:16.350Z,73.80
2023-03-02T16:26:43.517Z,73.44
2023-03-02T16:29:11.768Z,74.00
2023-03-02T16:31:39.442Z,73.94
2023-03-02T16:34:09.041Z,74.31
2023-03-02T16:36:37.680Z,75.54
2023-03-02T16:39:05.862Z,75.93
2023-03-02T16:41:33.050Z,75.81
2023-03-02T16:44:00.758Z,76.08
2023-03-02T16:46:30.363Z,74.63
2023-03-02T16:48:58.110Z,75.96
2023-03-02T16:51:25.530Z,74.94
2023-03-02T16:53:52.738Z,75.67
2023-03-02T16:56:19.618Z,75.23
2023-03-02T16:58:46.605Z,76.05
2023-03-02T17:01:16.461Z,76.91
2023-03-02T17:03:44.231Z,75.57
2023-03-02T17:06:13.807Z,77.15
2023-03-02T17:08:40.685Z,76.43
2023-03-02T17:11:07.699Z,76.01
2023-03-02T17:13:34.721Z,76.74
2023-03-02T17:16:01.712Z,77.18
2023-03-02T17:18:29.022Z,77.49
2023-03-02T17:20:57.556Z,77.31
2023-03-02T17:23:25.509Z,77.38
2023-03-02T17:25:52.333Z,77.43
2023-03-02T17:28:19.318Z,77.83
2023-03-02T17:30:46.732Z,78.67
2023-03-02T17:33:13.654Z,78.25
2023-03-02T17:35:40.629Z,77.70
2023-03-02T17:38:07.502Z,78.22
2023-03-02T17:40:34.858Z,78.79
2023-03-02T17:43:01.882Z,78.13
2023-03-02T17:45:29.926Z,78.05
2023-03-02T17:47:58.347Z,78.92
2023-03-02T17:50:25.727Z,78.63
2023-03-02T17:52:54.413Z,78.16
2023-03-02T17:55:21.376Z,78.08
2023-03-02T17:57:48.364Z,78.98
2023-03-02T18:00:18.287Z,78.71
2023-03-02T18:02:45.306Z,77.92
2023-03-02T18:05:12.832Z,78.68
2023-03-02T18:07:39.737Z,77.73
2023-03-02T18:10:07.447Z,79.42
2023-03-02T18:12:34.746Z,79.05
2023-03-02T18:15:01.682Z,78.71
2023-03-02T18:17:28.663Z,79.42
2023-03-02T18:19:55.485Z,78.71
2023-03-02T18:22:22.542Z,78.99
2023-03-02T18:24:50.595Z,79.51
2023-03-02T18:27:17.546Z,79.13
2023-03-02T18:29:44.549Z,80.25
2023-03-02T18:32:14.640Z,80.45
2023-03-02T18:34:42.902Z,79.36
2023-03-02T18:37:09.807Z,80.12
2023-03-02T18:39:38.009Z,80.71
2023-03-02T18:42:05.756Z,79.49
2023-03-02T18:44:32.823Z,80.21
2023-03-02T18:47:00.994Z,81.35
2023-03-02T18:49:28.461Z,81.31
2023-03-02T18:51:56.857Z,80.96
2023-03-02T18:54:24.252Z,81.19
2023-03-02T18:56:51.172Z,79.96
2023-03-02T18:59:18.304Z,80.74
2023-03-02T19:01:46.366Z,80.11
2023-03-02T19:04:14.491Z,79.87
2023-03-02T19:06:42.789Z,79.86
2023-03-02T19:09:10.186Z,80.58
2023-03-02T19:11:37.168Z,81.63
2023-03-02T19:14:04.218Z,82.05
2023-03-02T19:16:31.086Z,82.44
2023-03-02T19:18:58.039Z,82.45
2023-03-02T19:21:24.899Z,83.72
2023-03-02T19:23:52.037Z,83.18
2023-03-02T19:26:18.901Z,83.71
2023-03-02T19:28:46.102Z,82.19
2023-03-02T19:31:13.826Z,83.27
2023-03-02T19:33:42.463Z,83.06
2023-03-02T19:36:09.732Z,83.00
2023-03-02T19:38:40.750Z,84.74
2023-03-02T19:41:09.382Z,82.61
2023-03-02T19:43:36.781Z,83.53
2023-03-02T19:46:05.456Z,81.85
2023-03-02T19:48:32.475Z,80.90
2023-03-02T19:50:59.248Z,82.81
2023-03-02T19:53:26.198Z,83.15
2023-03-02T19:55:53.050Z,79.41
2023-03-02T19:58:20.670Z,82.64
2023-03-02T20:00:48.095Z,81.59
2023-03-02T20:03:15.325Z,83.08
2023-03-02T20:05:42.150Z,82.28
2023-03-02T20:08:09.217Z,83.08
2023-03-02T20:10:40.172Z,84.02
2023-03-02T20:13:08.123Z,82.62
2023-03-02T20:15:40.424Z,82.96
2023-03-02T20:18:10.154Z,84.59
2023-03-02T20:20:36.986Z,83.45
2023-03-02T20:23:04.759Z,84.79
2023-03-02T20:25:31.795Z,83.25
2023-03-02T20:27:58.878Z,82.68
2023-03-02T20:30:45.804Z,83.07
2023-03-02T20:33:13.435Z,82.59
2023-03-02T20:35:42.637Z,82.24
2023-03-02T20:38:15.068Z,80.70
2023-03-02T20:40:42.250Z,79.89
2023-03-02T20:43:09.356Z,79.41
2023-03-02T20:45:36.435Z,78.58
2023-03-02T20:48:04.444Z,79.46
2023-03-02T20:50:33.744Z,80.14
2023-03-02T20:53:00.910Z,79.89
2023-03-02T20:55:27.832Z,79.50
2023-03-02T20:57:55.712Z,79.35
2023-03-02T21:00:25.983Z,80.35
2023-03-02T21:02:53.081Z,79.42
2023-03-02T21:05:20.637Z,79.32
